Terminal Aerodrome Forecast
Issued by NWS Green Bay, WI

Home | Current Version | Previous Version | Text Only | Print | Product List | Glossary On
Versions: 1 2 3 4 5 6 7 8 9 10 11 12 13 14 15 16 17 18 19 20 21 22 23 24
000
FTUS43 KGRB 051720
TAFGRB
TAF
KGRB 051720Z 0518/0618 19010KT P6SM SCT040 BKN250
     FM060100 17005KT P6SM FEW050 BKN250
     FM060600 18004KT 5SM BR FEW140 SCT250 WS015/22030KT
     FM061400 18013G20KT P6SM SCT040 BKN140 PROB30 0616/0618 4SM
      -TSRA BR BKN040CB=

USA.gov is the U.S. government's official web portal to all federal, state and local government web resources and services.